createdAt,value
2018-01-11T00:00:14.119Z,4.03
2018-01-11T00:02:42.503Z,4.01
2018-01-11T00:05:10.843Z,3.99
2018-01-11T00:07:39.255Z,4.03
2018-01-11T00:10:07.644Z,4.07
2018-01-11T00:12:36.039Z,4.15
2018-01-11T00:15:04.367Z,4.12
2018-01-11T00:17:32.732Z,4.13
2018-01-11T00:20:01.107Z,4.15
2018-01-11T00:22:29.435Z,4.21
2018-01-11T00:24:57.803Z,4.23
2018-01-11T00:27:26.168Z,4.19
2018-01-11T00:29:54.553Z,4.17
2018-01-11T00:32:22.891Z,4.17
2018-01-11T00:34:51.247Z,4.16
2018-01-11T00:37:19.593Z,4.17
2018-01-11T00:39:47.947Z,4.18
2018-01-11T00:42:16.285Z,4.18
2018-01-11T00:44:45.467Z,4.23
2018-01-11T00:47:13.798Z,4.31
2018-01-11T00:49:42.171Z,4.23
2018-01-11T00:52:10.503Z,4.16
2018-01-11T00:54:39.643Z,4.12
2018-01-11T00:57:08.021Z,4.09
2018-01-11T00:59:36.367Z,4.03
2018-01-11T01:02:05.512Z,4.06
2018-01-11T01:04:33.842Z,3.98
2018-01-11T01:07:02.975Z,3.98
2018-01-11T01:09:31.322Z,3.94
2018-01-11T01:11:59.692Z,3.96
2018-01-11T01:14:28.786Z,3.97
2018-01-11T01:16:57.906Z,4.02
2018-01-11T01:19:26.276Z,4.05
2018-01-11T01:21:54.634Z,4.07
2018-01-11T01:24:23.738Z,4.12
2018-01-11T01:26:52.878Z,4.15
2018-01-11T01:29:21.222Z,4.17
2018-01-11T01:31:49.646Z,4.15
2018-01-11T01:34:18.031Z,4.13
2018-01-11T01:36:46.402Z,4.15
2018-01-11T01:39:14.802Z,4.21
2018-01-11T01:41:43.903Z,4.25
2018-01-11T01:44:12.231Z,4.24
2018-01-11T01:46:40.634Z,4.26
2018-01-11T01:49:08.990Z,4.28
2018-01-11T01:51:37.350Z,4.25
2018-01-11T01:54:05.699Z,4.23
2018-01-11T01:56:34.810Z,4.21
2018-01-11T01:59:03.182Z,4.21
2018-01-11T02:01:32.314Z,4.24
2018-01-11T02:04:00.686Z,4.24
2018-01-11T02:06:29.031Z,4.27
2018-01-11T02:08:58.122Z,4.36
2018-01-11T02:11:27.250Z,4.39
2018-01-11T02:13:55.583Z,4.38
2018-01-11T02:16:23.991Z,4.23
2018-01-11T02:18:52.352Z,4.30
2018-01-11T02:21:21.446Z,4.25
2018-01-11T02:23:50.569Z,4.22
2018-01-11T02:26:18.950Z,4.23
2018-01-11T02:28:47.323Z,4.21
2018-01-11T02:31:15.658Z,4.21
2018-01-11T02:33:43.998Z,4.22
2018-01-11T02:36:12.357Z,4.25
2018-01-11T02:38:40.694Z,4.26
2018-01-11T02:41:09.090Z,4.28
2018-01-11T02:43:38.213Z,4.30
2018-01-11T02:46:06.578Z,4.29
2018-01-11T02:48:34.909Z,4.34
2018-01-11T02:51:03.286Z,4.36
2018-01-11T02:53:31.625Z,4.32
2018-01-11T02:55:59.977Z,4.27
2018-01-11T02:58:29.118Z,4.28
2018-01-11T03:00:57.458Z,4.31
2018-01-11T03:03:25.826Z,4.37
2018-01-11T03:05:54.981Z,4.41
2018-01-11T03:08:23.335Z,4.44
2018-01-11T03:10:51.669Z,4.50
2018-01-11T03:13:20.034Z,4.53
2018-01-11T03:15:48.401Z,4.57
2018-01-11T03:18:16.742Z,4.56
2018-01-11T03:20:45.110Z,4.67
2018-01-11T03:23:13.481Z,4.70
2018-01-11T03:25:41.825Z,4.69
2018-01-11T03:28:10.193Z,4.65
2018-01-11T03:30:38.535Z,4.66
2018-01-11T03:33:06.929Z,4.63
2018-01-11T03:35:35.317Z,4.62
2018-01-11T03:38:03.725Z,4.61
2018-01-11T03:40:32.866Z,4.62
2018-01-11T03:43:01.161Z,4.62
2018-01-11T03:45:29.518Z,4.60
2018-01-11T03:47:57.909Z,4.60
2018-01-11T03:50:26.330Z,4.59
2018-01-11T03:52:55.436Z,4.58
2018-01-11T03:55:24.581Z,4.51
2018-01-11T03:57:52.949Z,4.45
2018-01-11T04:00:21.314Z,4.38
2018-01-11T04:02:49.661Z,4.37
2018-01-11T04:05:18.816Z,4.37
2018-01-11T04:07:47.146Z,4.36
2018-01-11T04:10:16.266Z,4.39
2018-01-11T04:12:44.611Z,4.37
2018-01-11T04:15:13.753Z,4.38
2018-01-11T04:17:42.104Z,4.34
2018-01-11T04:20:10.473Z,4.34
2018-01-11T04:22:38.822Z,4.31
2018-01-11T04:25:07.189Z,4.31
2018-01-11T04:27:35.522Z,4.28
2018-01-11T04:30:03.901Z,4.27
2018-01-11T04:32:32.264Z,4.29
2018-01-11T04:35:00.644Z,4.32
2018-01-11T04:37:28.994Z,4.33
2018-01-11T04:39:57.336Z,4.32
2018-01-11T04:42:25.720Z,4.28
2018-01-11T04:44:54.056Z,4.28
2018-01-11T04:47:22.413Z,4.30
2018-01-11T04:49:51.521Z,4.34
2018-01-11T04:52:20.652Z,4.39
2018-01-11T04:54:48.981Z,4.37
2018-01-11T04:57:18.102Z,4.34
2018-01-11T04:59:46.441Z,4.38
2018-01-11T05:02:14.817Z,4.38
2018-01-11T05:04:43.148Z,4.35
2018-01-11T05:07:11.477Z,4.31
2018-01-11T05:09:39.836Z,4.29
2018-01-11T05:12:08.170Z,4.29
2018-01-11T05:14:36.538Z,4.29
2018-01-11T05:17:04.930Z,4.30
2018-01-11T05:19:33.317Z,4.30
2018-01-11T05:22:01.653Z,4.29
2018-01-11T05:24:30.756Z,4.31
2018-01-11T05:26:59.900Z,4.35
2018-01-11T05:29:28.232Z,4.38
2018-01-11T05:31:57.420Z,4.40
2018-01-11T05:34:26.530Z,4.44
2018-01-11T05:36:54.888Z,4.49
2018-01-11T05:39:24.031Z,4.48
2018-01-11T05:41:52.366Z,4.45
2018-01-11T05:44:21.453Z,4.48
2018-01-11T05:46:50.620Z,4.46
2018-01-11T05:49:18.962Z,4.39
2018-01-11T05:51:47.290Z,4.42
2018-01-11T05:54:16.073Z,4.41
2018-01-11T05:56:44.408Z,4.39
2018-01-11T05:59:12.784Z,4.42
2018-01-11T06:01:41.117Z,4.41
2018-01-11T06:04:09.496Z,4.39
2018-01-11T06:06:37.824Z,4.41
2018-01-11T06:09:06.237Z,4.42
2018-01-11T06:11:34.597Z,4.42
2018-01-11T06:14:02.964Z,4.43
2018-01-11T06:16:31.337Z,4.45
2018-01-11T06:19:00.476Z,4.49
2018-01-11T06:21:28.856Z,4.57
2018-01-11T06:23:57.204Z,4.61
2018-01-11T06:26:25.572Z,4.60
2018-01-11T06:28:53.960Z,4.61
2018-01-11T06:31:22.300Z,4.56
2018-01-11T06:33:50.648Z,4.52
2018-01-11T06:36:19.028Z,4.51
2018-01-11T06:38:48.181Z,4.48
2018-01-11T06:41:16.937Z,4.44
2018-01-11T06:43:46.065Z,4.45
2018-01-11T06:46:14.405Z,4.47
2018-01-11T06:48:43.563Z,4.47
2018-01-11T06:51:11.881Z,4.44
2018-01-11T06:53:41.017Z,4.48
2018-01-11T06:56:09.388Z,4.45
2018-01-11T06:58:37.740Z,4.43
2018-01-11T07:01:06.116Z,4.39
2018-01-11T07:03:34.456Z,4.38
2018-01-11T07:06:02.784Z,4.37
2018-01-11T07:08:31.164Z,4.38
2018-01-11T07:10:59.527Z,4.37
2018-01-11T07:13:27.880Z,4.36
2018-01-11T07:15:56.248Z,4.34
2018-01-11T07:18:24.635Z,4.32
2018-01-11T07:20:53.012Z,4.34
2018-01-11T07:23:21.365Z,4.34
2018-01-11T07:25:49.740Z,4.34
2018-01-11T07:28:18.095Z,4.38
2018-01-11T07:30:46.480Z,4.39
2018-01-11T07:33:14.845Z,4.36
2018-01-11T07:35:43.235Z,4.38
2018-01-11T07:38:12.356Z,4.44
2018-01-11T07:40:40.736Z,4.47
2018-01-11T07:43:09.103Z,4.51
2018-01-11T07:45:37.477Z,4.53
2018-01-11T07:48:05.836Z,4.60
2018-01-11T07:50:34.223Z,4.64
2018-01-11T07:53:02.591Z,4.69
2018-01-11T07:55:31.699Z,4.72
2018-01-11T07:58:00.092Z,4.76
2018-01-11T08:00:28.439Z,4.75
2018-01-11T08:02:56.808Z,4.78
2018-01-11T08:05:25.163Z,4.84
2018-01-11T08:07:54.316Z,4.83
2018-01-11T08:10:22.687Z,4.82
2018-01-11T08:12:51.051Z,4.82
2018-01-11T08:15:19.383Z,4.82
2018-01-11T08:17:47.760Z,4.83
2018-01-11T08:20:16.927Z,4.83
2018-01-11T08:22:45.287Z,4.85
2018-01-11T08:25:13.615Z,4.87
2018-01-11T08:27:42.743Z,4.87
2018-01-11T08:30:11.071Z,4.85
2018-01-11T08:32:39.434Z,4.87
2018-01-11T08:35:07.767Z,4.86
2018-01-11T08:37:36.139Z,4.88
2018-01-11T08:40:05.855Z,4.86
2018-01-11T08:42:34.228Z,4.86
2018-01-11T08:45:03.323Z,4.84
2018-01-11T08:47:32.079Z,4.84
2018-01-11T08:50:00.414Z,4.82
2018-01-11T08:52:28.736Z,4.84
2018-01-11T08:54:57.100Z,4.85
2018-01-11T08:57:25.442Z,4.87
2018-01-11T08:59:53.815Z,4.91
2018-01-11T09:02:22.156Z,4.95
2018-01-11T09:04:51.299Z,5.01
2018-01-11T09:07:20.422Z,5.04
2018-01-11T09:09:48.802Z,5.05
2018-01-11T09:12:17.152Z,5.06
2018-01-11T09:14:45.490Z,5.12
2018-01-11T09:17:14.654Z,5.19
2018-01-11T09:19:43.008Z,5.24
2018-01-11T09:22:11.384Z,5.27
2018-01-11T09:24:39.710Z,5.35
2018-01-11T09:27:08.074Z,5.43
2018-01-11T09:29:36.418Z,5.43
2018-01-11T09:32:04.819Z,5.42
2018-01-11T09:34:33.167Z,5.37
2018-01-11T09:37:01.546Z,5.41
2018-01-11T09:39:29.896Z,5.49
2018-01-11T09:41:58.226Z,5.54
2018-01-11T09:44:26.602Z,5.58
2018-01-11T09:46:54.954Z,5.73
2018-01-11T09:49:23.324Z,5.75
2018-01-11T09:51:51.659Z,5.74
2018-01-11T09:54:20.802Z,5.75
2018-01-11T09:56:49.194Z,5.73
2018-01-11T09:59:17.558Z,5.83
2018-01-11T10:01:45.902Z,5.85
2018-01-11T10:04:15.039Z,5.89
2018-01-11T10:06:43.414Z,5.96
2018-01-11T10:09:11.751Z,6.01
2018-01-11T10:11:40.842Z,5.96
2018-01-11T10:14:09.974Z,5.91
2018-01-11T10:16:38.314Z,5.84
2018-01-11T10:19:07.446Z,5.84
2018-01-11T10:21:35.813Z,5.83
2018-01-11T10:24:04.211Z,5.77
2018-01-11T10:26:32.529Z,5.98
2018-01-11T10:29:00.859Z,6.18
2018-01-11T10:31:29.233Z,6.34
2018-01-11T10:33:57.583Z,6.49
2018-01-11T10:36:26.675Z,6.67
2018-01-11T10:38:55.818Z,6.78
2018-01-11T10:41:24.167Z,7.06
2018-01-11T10:43:52.522Z,7.13
2018-01-11T10:46:20.861Z,7.14
2018-01-11T10:48:49.238Z,7.14
2018-01-11T10:51:17.575Z,7.16
2018-01-11T10:53:45.958Z,7.13
2018-01-11T10:56:14.297Z,7.05
2018-01-11T10:58:42.650Z,6.98
2018-01-11T11:01:16.641Z,6.83
2018-01-11T11:03:45.010Z,6.88
2018-01-11T11:06:13.378Z,6.79
2018-01-11T11:08:41.718Z,6.75
2018-01-11T11:11:10.102Z,6.86
2018-01-11T11:13:38.454Z,6.92
2018-01-11T11:16:06.794Z,6.37
2018-01-11T11:18:35.167Z,6.32
2018-01-11T11:21:03.495Z,6.32
2018-01-11T11:23:31.866Z,5.93
2018-01-11T11:26:00.251Z,6.06
2018-01-11T11:28:28.614Z,6.03
2018-01-11T11:30:56.993Z,6.17
2018-01-11T11:33:26.942Z,6.38
2018-01-11T11:35:56.094Z,6.51
2018-01-11T11:38:25.189Z,6.43
2018-01-11T11:40:54.360Z,6.12
2018-01-11T11:43:22.681Z,6.60
2018-01-11T11:45:51.025Z,6.78
2018-01-11T11:48:19.402Z,6.96
2018-01-11T11:50:47.725Z,7.00
2018-01-11T11:53:16.066Z,6.99
2018-01-11T11:55:44.453Z,6.87
2018-01-11T11:58:12.790Z,7.05
2018-01-11T12:00:41.885Z,6.81
2018-01-11T12:03:11.029Z,6.54
2018-01-11T12:05:39.405Z,6.68
2018-01-11T12:08:07.761Z,6.34
2018-01-11T12:10:36.126Z,6.33
2018-01-11T12:13:04.469Z,6.51
2018-01-11T12:15:32.841Z,6.75
2018-01-11T12:18:01.229Z,6.87
2018-01-11T12:20:29.603Z,6.87
2018-01-11T12:22:57.925Z,6.87
2018-01-11T12:25:26.285Z,6.84
2018-01-11T12:27:55.381Z,6.85
2018-01-11T12:30:24.541Z,6.83
2018-01-11T12:32:52.869Z,6.85
2018-01-11T12:35:21.226Z,6.90
2018-01-11T12:37:50.325Z,6.98
2018-01-11T12:40:19.450Z,6.99
2018-01-11T12:42:47.825Z,6.88
2018-01-11T12:45:16.977Z,6.74
2018-01-11T12:47:45.302Z,6.63
2018-01-11T12:50:13.633Z,6.53
2018-01-11T12:52:42.757Z,6.52
2018-01-11T12:55:11.109Z,6.57
2018-01-11T12:57:40.337Z,6.53
2018-01-11T13:00:08.676Z,6.46
2018-01-11T13:02:37.018Z,6.45
2018-01-11T13:05:05.385Z,6.48
2018-01-11T13:07:33.725Z,6.52
2018-01-11T13:10:02.845Z,6.46
2018-01-11T13:12:31.186Z,6.43
2018-01-11T13:14:59.567Z,6.44
2018-01-11T13:17:28.681Z,6.40
2018-01-11T13:19:57.825Z,6.29
2018-01-11T13:22:26.201Z,6.20
2018-01-11T13:24:54.821Z,6.17
2018-01-11T13:27:23.925Z,6.10
2018-01-11T13:29:53.077Z,6.08
2018-01-11T13:32:21.409Z,6.02
2018-01-11T13:34:49.785Z,6.02
2018-01-11T13:37:18.166Z,6.01
2018-01-11T13:39:46.536Z,6.00
2018-01-11T13:42:15.681Z,5.97
2018-01-11T13:44:44.020Z,5.97
2018-01-11T13:47:12.378Z,5.88
2018-01-11T13:49:42.388Z,5.86
2018-01-11T13:52:10.764Z,5.88
2018-01-11T13:54:39.100Z,5.91
2018-01-11T13:57:07.469Z,5.93
2018-01-11T13:59:35.845Z,5.94
2018-01-11T14:02:04.234Z,5.97
2018-01-11T14:04:32.574Z,6.00
2018-01-11T14:07:01.012Z,6.03
2018-01-11T14:09:29.389Z,6.06
2018-01-11T14:11:57.749Z,6.07
2018-01-11T14:14:26.141Z,6.00
2018-01-11T14:16:54.486Z,6.01
2018-01-11T14:19:22.874Z,5.98
2018-01-11T14:21:51.196Z,5.92
2018-01-11T14:24:19.533Z,5.88
2018-01-11T14:26:48.668Z,5.87
2018-01-11T14:29:17.008Z,5.85
2018-01-11T14:31:46.174Z,5.82
2018-01-11T14:34:14.512Z,5.77
2018-01-11T14:36:42.953Z,5.74
2018-01-11T14:39:11.340Z,5.69
2018-01-11T14:41:39.728Z,5.67
2018-01-11T14:44:08.088Z,5.66
2018-01-11T14:46:36.413Z,5.61
2018-01-11T14:49:05.592Z,5.56
2018-01-11T14:51:33.944Z,5.61
2018-01-11T14:54:02.332Z,5.66
2018-01-11T14:56:30.712Z,5.69
2018-01-11T14:58:59.083Z,5.73
2018-01-11T15:01:28.193Z,5.80
2018-01-11T15:03:56.564Z,5.76
2018-01-11T15:06:24.892Z,5.70
2018-01-11T15:08:54.064Z,5.66
2018-01-11T15:11:22.440Z,5.72
2018-01-11T15:13:50.819Z,5.71
2018-01-11T15:16:20.060Z,5.70
2018-01-11T15:18:48.456Z,5.67
2018-01-11T15:21:16.792Z,5.61
2018-01-11T15:23:45.905Z,5.57
2018-01-11T15:26:14.297Z,5.55
2018-01-11T15:28:42.652Z,5.57
2018-01-11T15:31:11.776Z,5.56
2018-01-11T15:33:40.140Z,5.56
2018-01-11T15:36:08.477Z,5.58
2018-01-11T15:38:36.843Z,5.59
2018-01-11T15:41:05.216Z,5.58
2018-01-11T15:43:33.635Z,5.57
2018-01-11T15:46:01.987Z,5.57
2018-01-11T15:48:30.331Z,5.57
2018-01-11T15:50:58.703Z,5.59
2018-01-11T15:53:27.104Z,5.65
2018-01-11T15:55:55.451Z,5.60
2018-01-11T15:58:23.820Z,5.59
2018-01-11T16:00:52.619Z,5.52
2018-01-11T16:03:20.980Z,5.50
2018-01-11T16:05:50.088Z,5.42
2018-01-11T16:08:19.524Z,5.42
2018-01-11T16:10:48.659Z,5.36
2018-01-11T16:13:18.015Z,5.30
2018-01-11T16:15:47.002Z,5.30
2018-01-11T16:18:15.647Z,5.27
2018-01-11T16:20:44.769Z,5.31
2018-01-11T16:23:13.166Z,5.33
2018-01-11T16:25:41.524Z,5.34
2018-01-11T16:28:09.879Z,5.30
2018-01-11T16:30:38.307Z,5.12
2018-01-11T16:33:06.891Z,5.09
2018-01-11T16:35:35.270Z,5.10
2018-01-11T16:38:03.629Z,5.00
2018-01-11T16:40:32.020Z,5.00
2018-01-11T16:43:00.375Z,5.08
2018-01-11T16:45:31.615Z,5.10
2018-01-11T16:47:59.967Z,4.99
2018-01-11T16:50:29.141Z,5.00
2018-01-11T16:52:57.565Z,5.02
2018-01-11T16:55:26.001Z,4.99
2018-01-11T16:57:54.378Z,5.09
2018-01-11T17:00:22.733Z,5.10
2018-01-11T17:02:51.853Z,5.05
2018-01-11T17:05:20.191Z,5.16
2018-01-11T17:08:11.719Z,2.62
2018-01-11T17:10:40.323Z,5.16
2018-01-11T17:13:11.283Z,5.07
2018-01-11T17:18:42.775Z,4.97
2018-01-11T17:21:14.110Z,4.98
2018-01-11T17:23:42.786Z,5.06
2018-01-11T17:26:12.302Z,5.05
2018-01-11T17:28:45.538Z,5.03
2018-01-11T17:31:13.993Z,5.09
2018-01-11T17:33:42.383Z,4.90
2018-01-11T17:36:10.963Z,4.93
2018-01-11T17:38:39.351Z,4.93
2018-01-11T17:41:08.949Z,4.95
2018-01-11T17:43:38.677Z,4.92
2018-01-11T17:46:14.837Z,4.87
2018-01-11T17:48:43.309Z,4.91
2018-01-11T17:51:11.791Z,4.92
2018-01-11T17:53:43.235Z,4.91
2018-01-11T17:56:11.708Z,5.02
2018-01-11T17:58:40.052Z,5.09
2018-01-11T18:01:09.288Z,5.14
2018-01-11T18:03:38.094Z,5.10
2018-01-11T18:06:06.548Z,5.31
2018-01-11T18:08:34.895Z,5.31
2018-01-11T18:11:04.043Z,5.34
2018-01-11T18:13:33.167Z,5.34
2018-01-11T18:16:02.851Z,5.28
2018-01-11T18:18:31.326Z,5.22
2018-01-11T18:20:59.800Z,5.20
2018-01-11T18:23:28.176Z,5.27
2018-01-11T18:25:56.715Z,5.37
2018-01-11T18:28:26.727Z,5.30
2018-01-11T18:30:55.850Z,5.33
2018-01-11T18:33:25.178Z,5.23
2018-01-11T18:35:53.859Z,5.25
2018-01-11T18:38:24.682Z,5.27
2018-01-11T18:40:53.826Z,5.34
2018-01-11T18:43:22.250Z,5.36
2018-01-11T18:45:50.638Z,5.39
2018-01-11T18:48:20.442Z,5.37
2018-01-11T18:50:49.042Z,5.35
2018-01-11T18:53:27.845Z,5.35
2018-01-11T18:55:56.278Z,5.31
2018-01-11T18:58:24.646Z,5.25
2018-01-11T19:00:54.003Z,5.32
2018-01-11T19:03:24.678Z,5.28
2018-01-11T19:05:53.698Z,5.25
2018-01-11T19:08:25.042Z,5.24
2018-01-11T19:11:03.448Z,5.25
2018-01-11T19:13:32.844Z,5.19
2018-01-11T19:16:03.218Z,5.07
2018-01-11T19:18:31.681Z,5.00
2018-01-11T19:21:01.181Z,5.09
2018-01-11T19:23:30.640Z,5.03
2018-01-11T19:25:59.870Z,5.11
2018-01-11T19:28:29.453Z,5.14
2018-01-11T19:31:00.743Z,5.09
2018-01-11T19:33:29.970Z,5.03
2018-01-11T19:35:59.239Z,5.08
2018-01-11T19:38:29.451Z,5.05
2018-01-11T19:40:58.963Z,5.05
2018-01-11T19:43:29.906Z,5.05
2018-01-11T19:46:00.810Z,5.11
2018-01-11T19:48:30.702Z,5.09
2018-01-11T19:50:59.834Z,5.13
2018-01-11T19:53:28.893Z,5.12
2018-01-11T19:55:57.297Z,5.10
2018-01-11T19:58:26.842Z,5.05
2018-01-11T20:00:55.758Z,5.11
2018-01-11T20:03:26.759Z,5.07
2018-01-11T20:05:56.983Z,5.02
2018-01-11T20:08:25.730Z,4.92
2018-01-11T20:10:54.085Z,4.90
2018-01-11T20:13:22.490Z,4.87
2018-01-11T20:15:52.337Z,4.86
2018-01-11T20:18:21.890Z,4.94
2018-01-11T20:20:50.278Z,5.02
2018-01-11T20:23:18.717Z,4.95
2018-01-11T20:25:47.078Z,5.09
2018-01-11T20:28:16.225Z,4.87
2018-01-11T20:30:44.597Z,4.84
2018-01-11T20:33:12.995Z,4.78
2018-01-11T20:35:41.337Z,4.71
2018-01-11T20:38:09.898Z,4.86
2018-01-11T20:40:38.378Z,4.95
2018-01-11T20:43:08.500Z,4.91
2018-01-11T20:45:36.886Z,4.79
2018-01-11T20:48:05.243Z,4.85
2018-01-11T20:50:34.391Z,4.74
2018-01-11T20:53:02.818Z,4.83
2018-01-11T20:55:32.702Z,4.85
2018-01-11T20:58:01.093Z,4.91
2018-01-11T21:00:29.474Z,4.73
2018-01-11T21:02:58.457Z,4.78
2018-01-11T21:05:26.805Z,4.74
2018-01-11T21:07:57.125Z,4.82
2018-01-11T21:10:25.473Z,4.71
2018-01-11T21:12:53.877Z,4.63
2018-01-11T21:15:23.873Z,4.70
2018-01-11T21:17:52.221Z,4.67
2018-01-11T21:20:20.609Z,4.57
2018-01-11T21:22:50.437Z,4.53
2018-01-11T21:25:19.614Z,4.52
2018-01-11T21:27:48.819Z,4.52
2018-01-11T21:30:17.169Z,4.45
2018-01-11T21:32:45.570Z,4.39
2018-01-11T21:35:14.769Z,4.44
2018-01-11T21:37:43.924Z,4.43
2018-01-11T21:40:12.310Z,4.44
2018-01-11T21:42:40.665Z,4.40
2018-01-11T21:45:09.057Z,4.45
2018-01-11T21:47:37.417Z,4.49
2018-01-11T21:50:05.870Z,4.48
2018-01-11T21:52:34.981Z,4.43
2018-01-11T21:55:03.943Z,4.41
2018-01-11T21:57:33.089Z,4.24
2018-01-11T22:00:01.737Z,4.24
2018-01-11T22:02:30.133Z,4.20
2018-01-11T22:04:58.512Z,4.16
2018-01-11T22:07:27.625Z,4.20
2018-01-11T22:09:56.781Z,4.30
2018-01-11T22:12:25.896Z,4.15
2018-01-11T22:14:54.232Z,4.09
2018-01-11T22:17:22.629Z,4.01
2018-01-11T22:19:51.753Z,4.02
2018-01-11T22:22:20.089Z,4.01
2018-01-11T22:24:48.478Z,4.08
2018-01-11T22:27:18.540Z,4.09
2018-01-11T22:29:46.928Z,3.97
2018-01-11T22:32:15.283Z,3.94
2018-01-11T22:34:43.655Z,3.92
2018-01-11T22:37:12.022Z,4.02
2018-01-11T22:39:41.128Z,4.06
2018-01-11T22:42:09.558Z,4.15
2018-01-11T22:44:38.104Z,4.16
2018-01-11T22:47:06.452Z,4.12
2018-01-11T22:49:35.548Z,4.11
2018-01-11T22:52:04.754Z,4.13
2018-01-11T22:54:33.049Z,4.24
2018-01-11T22:57:01.429Z,4.16
2018-01-11T22:59:29.784Z,4.25
2018-01-11T23:01:58.156Z,4.18
2018-01-11T23:04:27.277Z,4.19
2018-01-11T23:06:56.084Z,4.18
2018-01-11T23:09:24.437Z,4.33
2018-01-11T23:11:52.784Z,4.26
2018-01-11T23:14:21.937Z,4.19
2018-01-11T23:16:50.328Z,4.23
2018-01-11T23:19:18.720Z,4.23
2018-01-11T23:21:47.066Z,4.14
2018-01-11T23:24:15.660Z,4.17
2018-01-11T23:26:44.000Z,4.22
2018-01-11T23:29:12.412Z,4.40
2018-01-11T23:31:40.756Z,4.25
2018-01-11T23:34:09.525Z,4.21
2018-01-11T23:36:38.644Z,4.25
2018-01-11T23:39:07.032Z,4.29
2018-01-11T23:41:35.417Z,4.32
2018-01-11T23:44:03.768Z,4.26
2018-01-11T23:46:32.132Z,4.28
2018-01-11T23:49:00.508Z,4.31
2018-01-11T23:51:30.230Z,4.24
2018-01-11T23:53:58.619Z,4.20
2018-01-11T23:56:26.960Z,4.25
2018-01-11T23:58:55.360Z,4.16
